sensor_id;sensor_type;location;lat;lon;timestamp;P1;durP1;ratioP1;P2;durP2;ratioP2
38226;SDS011;24026;49.446;8.576;2023-09-18T00:01:20;152.43;;;140.07;;
38226;SDS011;24026;49.446;8.576;2023-09-18T00:03:40;152.70;;;140.20;;
38226;SDS011;24026;49.446;8.576;2023-09-18T00:06:01;151.75;;;139.45;;
38226;SDS011;24026;49.446;8.576;2023-09-18T00:08:21;152.50;;;140.15;;
38226;SDS011;24026;49.446;8.576;2023-09-18T00:10:42;150.85;;;138.60;;
38226;SDS011;24026;49.446;8.576;2023-09-18T00:13:06;151.35;;;139.05;;
38226;SDS011;24026;49.446;8.576;2023-09-18T00:15:27;152.65;;;140.30;;
38226;SDS011;24026;49.446;8.576;2023-09-18T00:17:48;154.02;;;141.43;;
38226;SDS011;24026;49.446;8.576;2023-09-18T00:20:08;152.88;;;140.27;;
38226;SDS011;24026;49.446;8.576;2023-09-18T00:22:29;152.77;;;140.35;;
38226;SDS011;24026;49.446;8.576;2023-09-18T00:24:49;150.65;;;138.38;;
38226;SDS011;24026;49.446;8.576;2023-09-18T00:27:10;151.00;;;138.73;;
38226;SDS011;24026;49.446;8.576;2023-09-18T00:29:31;152.07;;;139.85;;
38226;SDS011;24026;49.446;8.576;2023-09-18T00:31:51;152.27;;;139.98;;
38226;SDS011;24026;49.446;8.576;2023-09-18T00:34:11;151.15;;;138.88;;
38226;SDS011;24026;49.446;8.576;2023-09-18T00:36:32;150.77;;;138.55;;
38226;SDS011;24026;49.446;8.576;2023-09-18T00:38:52;152.00;;;139.55;;
38226;SDS011;24026;49.446;8.576;2023-09-18T00:41:13;154.35;;;141.85;;
38226;SDS011;24026;49.446;8.576;2023-09-18T00:43:33;152.50;;;140.10;;
38226;SDS011;24026;49.446;8.576;2023-09-18T00:45:54;152.32;;;140.05;;
38226;SDS011;24026;49.446;8.576;2023-09-18T00:48:15;154.40;;;141.90;;
38226;SDS011;24026;49.446;8.576;2023-09-18T00:50:37;154.18;;;141.75;;
38226;SDS011;24026;49.446;8.576;2023-09-18T00:52:58;151.23;;;138.98;;
38226;SDS011;24026;49.446;8.576;2023-09-18T00:55:19;151.63;;;139.32;;
38226;SDS011;24026;49.446;8.576;2023-09-18T00:57:41;152.57;;;140.27;;
38226;SDS011;24026;49.446;8.576;2023-09-18T01:00:03;150.98;;;138.77;;
38226;SDS011;24026;49.446;8.576;2023-09-18T01:02:27;151.90;;;139.65;;
38226;SDS011;24026;49.446;8.576;2023-09-18T01:04:48;152.07;;;139.77;;
38226;SDS011;24026;49.446;8.576;2023-09-18T01:07:10;153.90;;;141.50;;
38226;SDS011;24026;49.446;8.576;2023-09-18T01:09:30;150.45;;;138.25;;
38226;SDS011;24026;49.446;8.576;2023-09-18T01:12:03;151.73;;;139.40;;
38226;SDS011;24026;49.446;8.576;2023-09-18T01:14:33;151.55;;;139.25;;
38226;SDS011;24026;49.446;8.576;2023-09-18T01:17:00;151.35;;;139.10;;
38226;SDS011;24026;49.446;8.576;2023-09-18T01:19:35;151.25;;;139.00;;
38226;SDS011;24026;49.446;8.576;2023-09-18T01:21:59;152.10;;;139.77;;
38226;SDS011;24026;49.446;8.576;2023-09-18T01:24:19;153.20;;;140.75;;
38226;SDS011;24026;49.446;8.576;2023-09-18T01:26:40;153.93;;;141.43;;
38226;SDS011;24026;49.446;8.576;2023-09-18T01:29:00;154.70;;;142.30;;
38226;SDS011;24026;49.446;8.576;2023-09-18T01:31:21;152.85;;;140.48;;
38226;SDS011;24026;49.446;8.576;2023-09-18T01:33:42;152.77;;;140.40;;
38226;SDS011;24026;49.446;8.576;2023-09-18T01:36:04;153.40;;;141.00;;
38226;SDS011;24026;49.446;8.576;2023-09-18T01:38:28;153.10;;;140.60;;
38226;SDS011;24026;49.446;8.576;2023-09-18T01:40:50;152.05;;;139.73;;
38226;SDS011;24026;49.446;8.576;2023-09-18T01:43:13;151.50;;;139.27;;
38226;SDS011;24026;49.446;8.576;2023-09-18T01:45:34;153.73;;;141.35;;
38226;SDS011;24026;49.446;8.576;2023-09-18T01:47:54;152.95;;;140.48;;
38226;SDS011;24026;49.446;8.576;2023-09-18T01:50:15;151.15;;;138.85;;
38226;SDS011;24026;49.446;8.576;2023-09-18T01:52:35;152.13;;;139.82;;
38226;SDS011;24026;49.446;8.576;2023-09-18T01:54:56;152.73;;;140.25;;
38226;SDS011;24026;49.446;8.576;2023-09-18T01:57:16;152.43;;;140.15;;
38226;SDS011;24026;49.446;8.576;2023-09-18T01:59:36;152.02;;;139.55;;
38226;SDS011;24026;49.446;8.576;2023-09-18T02:01:57;152.70;;;140.43;;
38226;SDS011;24026;49.446;8.576;2023-09-18T02:04:17;151.18;;;138.95;;
38226;SDS011;24026;49.446;8.576;2023-09-18T02:06:38;151.90;;;139.57;;
38226;SDS011;24026;49.446;8.576;2023-09-18T02:08:59;152.75;;;140.25;;
38226;SDS011;24026;49.446;8.576;2023-09-18T02:11:20;151.20;;;138.98;;
38226;SDS011;24026;49.446;8.576;2023-09-18T02:13:41;150.52;;;138.30;;
38226;SDS011;24026;49.446;8.576;2023-09-18T02:16:02;155.05;;;142.60;;
38226;SDS011;24026;49.446;8.576;2023-09-18T02:18:23;151.15;;;138.75;;
38226;SDS011;24026;49.446;8.576;2023-09-18T02:20:43;151.68;;;139.30;;
38226;SDS011;24026;49.446;8.576;2023-09-18T02:23:07;151.57;;;139.33;;
38226;SDS011;24026;49.446;8.576;2023-09-18T02:25:27;151.25;;;138.95;;
38226;SDS011;24026;49.446;8.576;2023-09-18T02:27:48;150.25;;;138.05;;
38226;SDS011;24026;49.446;8.576;2023-09-18T02:30:09;152.82;;;140.43;;
38226;SDS011;24026;49.446;8.576;2023-09-18T02:32:30;150.13;;;138.02;;
38226;SDS011;24026;49.446;8.576;2023-09-18T02:34:51;151.38;;;139.00;;
38226;SDS011;24026;49.446;8.576;2023-09-18T02:37:11;151.77;;;139.48;;
38226;SDS011;24026;49.446;8.576;2023-09-18T02:39:32;152.00;;;139.60;;
38226;SDS011;24026;49.446;8.576;2023-09-18T02:41:52;149.88;;;137.63;;
38226;SDS011;24026;49.446;8.576;2023-09-18T02:44:13;151.85;;;139.45;;
38226;SDS011;24026;49.446;8.576;2023-09-18T02:46:33;149.40;;;137.20;;
38226;SDS011;24026;49.446;8.576;2023-09-18T02:48:54;152.43;;;140.02;;
38226;SDS011;24026;49.446;8.576;2023-09-18T02:51:14;152.30;;;140.00;;
38226;SDS011;24026;49.446;8.576;2023-09-18T02:53:34;149.98;;;137.85;;
38226;SDS011;24026;49.446;8.576;2023-09-18T02:55:55;151.10;;;138.80;;
38226;SDS011;24026;49.446;8.576;2023-09-18T02:58:17;149.20;;;136.90;;
38226;SDS011;24026;49.446;8.576;2023-09-18T03:00:42;149.80;;;137.63;;
38226;SDS011;24026;49.446;8.576;2023-09-18T03:03:03;151.00;;;138.77;;
38226;SDS011;24026;49.446;8.576;2023-09-18T03:05:24;151.27;;;138.88;;
38226;SDS011;24026;49.446;8.576;2023-09-18T03:07:44;150.63;;;138.25;;
38226;SDS011;24026;49.446;8.576;2023-09-18T03:10:05;150.50;;;138.25;;
38226;SDS011;24026;49.446;8.576;2023-09-18T03:12:25;149.60;;;137.40;;
38226;SDS011;24026;49.446;8.576;2023-09-18T03:14:46;150.82;;;138.48;;
38226;SDS011;24026;49.446;8.576;2023-09-18T03:17:07;148.98;;;136.75;;
38226;SDS011;24026;49.446;8.576;2023-09-18T03:19:27;151.73;;;139.32;;
38226;SDS011;24026;49.446;8.576;2023-09-18T03:21:47;151.48;;;139.07;;
38226;SDS011;24026;49.446;8.576;2023-09-18T03:24:08;151.48;;;139.18;;
38226;SDS011;24026;49.446;8.576;2023-09-18T03:26:28;150.93;;;138.65;;
38226;SDS011;24026;49.446;8.576;2023-09-18T03:28:49;151.75;;;139.35;;
38226;SDS011;24026;49.446;8.576;2023-09-18T03:31:09;150.50;;;138.13;;
38226;SDS011;24026;49.446;8.576;2023-09-18T03:33:29;150.82;;;138.60;;
38226;SDS011;24026;49.446;8.576;2023-09-18T03:35:50;153.25;;;140.75;;
38226;SDS011;24026;49.446;8.576;2023-09-18T03:38:14;152.35;;;139.85;;
38226;SDS011;24026;49.446;8.576;2023-09-18T03:40:35;151.10;;;138.77;;
38226;SDS011;24026;49.446;8.576;2023-09-18T03:42:55;152.70;;;140.23;;
38226;SDS011;24026;49.446;8.576;2023-09-18T03:45:15;149.60;;;137.30;;
38226;SDS011;24026;49.446;8.576;2023-09-18T03:47:39;152.40;;;139.93;;
38226;SDS011;24026;49.446;8.576;2023-09-18T03:50:03;149.68;;;137.50;;
38226;SDS011;24026;49.446;8.576;2023-09-18T03:52:24;150.27;;;137.98;;
38226;SDS011;24026;49.446;8.576;2023-09-18T03:54:44;151.02;;;138.63;;
38226;SDS011;24026;49.446;8.576;2023-09-18T03:57:04;150.05;;;137.68;;
38226;SDS011;24026;49.446;8.576;2023-09-18T03:59:25;150.82;;;138.57;;
38226;SDS011;24026;49.446;8.576;2023-09-18T04:01:45;150.50;;;138.10;;
38226;SDS011;24026;49.446;8.576;2023-09-18T04:04:06;150.30;;;138.00;;
38226;SDS011;24026;49.446;8.576;2023-09-18T04:06:32;153.07;;;140.60;;
38226;SDS011;24026;49.446;8.576;2023-09-18T04:08:57;151.98;;;139.60;;
38226;SDS011;24026;49.446;8.576;2023-09-18T04:11:17;149.77;;;137.57;;
38226;SDS011;24026;49.446;8.576;2023-09-18T04:13:39;151.73;;;139.07;;
38226;SDS011;24026;49.446;8.576;2023-09-18T04:16:00;151.98;;;139.52;;
38226;SDS011;24026;49.446;8.576;2023-09-18T04:18:20;148.98;;;136.77;;
38226;SDS011;24026;49.446;8.576;2023-09-18T04:20:41;149.90;;;137.70;;
38226;SDS011;24026;49.446;8.576;2023-09-18T04:23:16;150.52;;;138.23;;
38226;SDS011;24026;49.446;8.576;2023-09-18T04:25:39;149.82;;;137.50;;
38226;SDS011;24026;49.446;8.576;2023-09-18T04:27:59;150.45;;;138.07;;
38226;SDS011;24026;49.446;8.576;2023-09-18T04:30:20;151.40;;;139.02;;
38226;SDS011;24026;49.446;8.576;2023-09-18T04:32:40;150.90;;;138.57;;
38226;SDS011;24026;49.446;8.576;2023-09-18T04:35:01;152.93;;;140.45;;
38226;SDS011;24026;49.446;8.576;2023-09-18T04:37:21;152.02;;;139.55;;
38226;SDS011;24026;49.446;8.576;2023-09-18T04:39:41;151.93;;;139.48;;
38226;SDS011;24026;49.446;8.576;2023-09-18T04:42:02;151.80;;;139.23;;
38226;SDS011;24026;49.446;8.576;2023-09-18T04:44:24;152.02;;;139.65;;
38226;SDS011;24026;49.446;8.576;2023-09-18T04:46:44;151.98;;;139.57;;
38226;SDS011;24026;49.446;8.576;2023-09-18T04:49:04;151.73;;;139.25;;
38226;SDS011;24026;49.446;8.576;2023-09-18T04:51:25;151.43;;;138.93;;
38226;SDS011;24026;49.446;8.576;2023-09-18T04:53:45;152.43;;;139.88;;
38226;SDS011;24026;49.446;8.576;2023-09-18T04:56:06;151.05;;;138.52;;
38226;SDS011;24026;49.446;8.576;2023-09-18T04:58:26;152.50;;;139.90;;
38226;SDS011;24026;49.446;8.576;2023-09-18T05:00:47;153.05;;;140.55;;
38226;SDS011;24026;49.446;8.576;2023-09-18T05:03:13;154.45;;;141.75;;
38226;SDS011;24026;49.446;8.576;2023-09-18T05:05:33;150.13;;;137.57;;
38226;SDS011;24026;49.446;8.576;2023-09-18T05:07:54;151.80;;;139.25;;
38226;SDS011;24026;49.446;8.576;2023-09-18T05:10:15;152.02;;;139.57;;
38226;SDS011;24026;49.446;8.576;2023-09-18T05:12:37;153.18;;;140.18;;
38226;SDS011;24026;49.446;8.576;2023-09-18T05:14:59;152.43;;;139.30;;
38226;SDS011;24026;49.446;8.576;2023-09-18T05:17:19;274.08;;;247.63;;
38226;SDS011;24026;49.446;8.576;2023-09-18T05:19:40;163.73;;;149.40;;
38226;SDS011;24026;49.446;8.576;2023-09-18T05:22:00;157.68;;;142.85;;
38226;SDS011;24026;49.446;8.576;2023-09-18T05:24:21;164.02;;;148.85;;
38226;SDS011;24026;49.446;8.576;2023-09-18T05:26:47;158.93;;;144.38;;
38226;SDS011;24026;49.446;8.576;2023-09-18T05:29:07;158.80;;;144.50;;
38226;SDS011;24026;49.446;8.576;2023-09-18T05:31:27;153.77;;;139.27;;
38226;SDS011;24026;49.446;8.576;2023-09-18T05:33:48;154.27;;;140.13;;
38226;SDS011;24026;49.446;8.576;2023-09-18T05:36:08;151.68;;;137.63;;
38226;SDS011;24026;49.446;8.576;2023-09-18T05:38:29;150.75;;;136.75;;
38226;SDS011;24026;49.446;8.576;2023-09-18T05:40:49;153.15;;;138.65;;
38226;SDS011;24026;49.446;8.576;2023-09-18T05:43:10;154.25;;;139.75;;
38226;SDS011;24026;49.446;8.576;2023-09-18T05:45:31;154.60;;;140.00;;
38226;SDS011;24026;49.446;8.576;2023-09-18T05:47:52;163.20;;;146.98;;
38226;SDS011;24026;49.446;8.576;2023-09-18T05:50:21;174.25;;;157.80;;
38226;SDS011;24026;49.446;8.576;2023-09-18T05:52:45;208.77;;;188.65;;
38226;SDS011;24026;49.446;8.576;2023-09-18T05:55:07;204.57;;;185.55;;
38226;SDS011;24026;49.446;8.576;2023-09-18T05:57:27;196.95;;;177.60;;
38226;SDS011;24026;49.446;8.576;2023-09-18T05:59:48;187.35;;;169.15;;
38226;SDS011;24026;49.446;8.576;2023-09-18T06:02:09;184.48;;;167.07;;
38226;SDS011;24026;49.446;8.576;2023-09-18T06:04:29;163.48;;;147.60;;
38226;SDS011;24026;49.446;8.576;2023-09-18T06:06:50;162.50;;;146.52;;
38226;SDS011;24026;49.446;8.576;2023-09-18T06:09:11;210.77;;;171.90;;
38226;SDS011;24026;49.446;8.576;2023-09-18T06:11:32;195.68;;;177.13;;
38226;SDS011;24026;49.446;8.576;2023-09-18T06:13:53;170.20;;;153.45;;
38226;SDS011;24026;49.446;8.576;2023-09-18T06:16:14;160.73;;;144.68;;
38226;SDS011;24026;49.446;8.576;2023-09-18T06:18:34;169.15;;;152.75;;
38226;SDS011;24026;49.446;8.576;2023-09-18T06:20:57;177.35;;;159.98;;
38226;SDS011;24026;49.446;8.576;2023-09-18T06:23:18;185.90;;;167.10;;
38226;SDS011;24026;49.446;8.576;2023-09-18T06:25:41;185.25;;;167.50;;
38226;SDS011;24026;49.446;8.576;2023-09-18T06:28:02;172.60;;;155.60;;
38226;SDS011;24026;49.446;8.576;2023-09-18T06:30:23;163.13;;;147.73;;
38226;SDS011;24026;49.446;8.576;2023-09-18T06:32:43;167.68;;;151.80;;
38226;SDS011;24026;49.446;8.576;2023-09-18T06:35:05;160.88;;;145.50;;
38226;SDS011;24026;49.446;8.576;2023-09-18T06:37:25;156.73;;;141.88;;
38226;SDS011;24026;49.446;8.576;2023-09-18T06:39:46;159.25;;;144.10;;
38226;SDS011;24026;49.446;8.576;2023-09-18T06:42:06;160.50;;;145.07;;
38226;SDS011;24026;49.446;8.576;2023-09-18T06:44:27;164.98;;;149.25;;
38226;SDS011;24026;49.446;8.576;2023-09-18T06:46:47;158.98;;;144.02;;
38226;SDS011;24026;49.446;8.576;2023-09-18T06:49:08;163.43;;;147.95;;
38226;SDS011;24026;49.446;8.576;2023-09-18T06:51:28;163.73;;;148.00;;
38226;SDS011;24026;49.446;8.576;2023-09-18T06:53:49;168.68;;;152.55;;
38226;SDS011;24026;49.446;8.576;2023-09-18T06:56:09;163.65;;;148.15;;
38226;SDS011;24026;49.446;8.576;2023-09-18T06:58:29;167.57;;;151.32;;
38226;SDS011;24026;49.446;8.576;2023-09-18T07:00:50;163.10;;;147.25;;
38226;SDS011;24026;49.446;8.576;2023-09-18T07:03:11;160.90;;;145.25;;
38226;SDS011;24026;49.446;8.576;2023-09-18T07:05:31;156.05;;;140.55;;
38226;SDS011;24026;49.446;8.576;2023-09-18T07:07:52;154.45;;;139.35;;
38226;SDS011;24026;49.446;8.576;2023-09-18T07:10:12;155.20;;;139.55;;
38226;SDS011;24026;49.446;8.576;2023-09-18T07:12:33;157.38;;;142.88;;
38226;SDS011;24026;49.446;8.576;2023-09-18T07:14:56;171.18;;;156.05;;
38226;SDS011;24026;49.446;8.576;2023-09-18T07:17:16;177.75;;;162.57;;
38226;SDS011;24026;49.446;8.576;2023-09-18T07:19:37;181.15;;;165.45;;
38226;SDS011;24026;49.446;8.576;2023-09-18T07:21:57;181.32;;;165.88;;
38226;SDS011;24026;49.446;8.576;2023-09-18T07:24:18;178.23;;;163.30;;
38226;SDS011;24026;49.446;8.576;2023-09-18T07:26:40;188.20;;;173.10;;
38226;SDS011;24026;49.446;8.576;2023-09-18T07:29:01;175.07;;;160.48;;
38226;SDS011;24026;49.446;8.576;2023-09-18T07:31:21;166.27;;;152.07;;
38226;SDS011;24026;49.446;8.576;2023-09-18T07:33:42;167.85;;;152.57;;
38226;SDS011;24026;49.446;8.576;2023-09-18T07:36:02;168.13;;;153.35;;
38226;SDS011;24026;49.446;8.576;2023-09-18T07:38:24;167.65;;;153.25;;
38226;SDS011;24026;49.446;8.576;2023-09-18T07:40:45;164.43;;;150.13;;
38226;SDS011;24026;49.446;8.576;2023-09-18T07:43:07;161.90;;;147.13;;
38226;SDS011;24026;49.446;8.576;2023-09-18T07:45:28;154.63;;;140.57;;
38226;SDS011;24026;49.446;8.576;2023-09-18T07:47:49;150.40;;;137.07;;
38226;SDS011;24026;49.446;8.576;2023-09-18T07:50:10;151.57;;;138.38;;
38226;SDS011;24026;49.446;8.576;2023-09-18T07:52:31;154.00;;;140.30;;
38226;SDS011;24026;49.446;8.576;2023-09-18T07:54:51;150.25;;;136.27;;
38226;SDS011;24026;49.446;8.576;2023-09-18T07:57:12;151.60;;;137.50;;
38226;SDS011;24026;49.446;8.576;2023-09-18T07:59:33;152.48;;;139.30;;
38226;SDS011;24026;49.446;8.576;2023-09-18T08:01:54;150.63;;;137.50;;
38226;SDS011;24026;49.446;8.576;2023-09-18T08:04:14;152.38;;;138.43;;
38226;SDS011;24026;49.446;8.576;2023-09-18T08:06:35;154.85;;;140.95;;
38226;SDS011;24026;49.446;8.576;2023-09-18T08:08:55;154.95;;;141.32;;
38226;SDS011;24026;49.446;8.576;2023-09-18T08:11:15;153.68;;;139.45;;
38226;SDS011;24026;49.446;8.576;2023-09-18T08:13:36;154.60;;;139.65;;
38226;SDS011;24026;49.446;8.576;2023-09-18T08:15:57;153.65;;;139.15;;
38226;SDS011;24026;49.446;8.576;2023-09-18T08:18:18;160.43;;;144.73;;
38226;SDS011;24026;49.446;8.576;2023-09-18T08:20:40;155.45;;;141.25;;
38226;SDS011;24026;49.446;8.576;2023-09-18T08:23:03;157.07;;;143.00;;
38226;SDS011;24026;49.446;8.576;2023-09-18T08:25:25;155.02;;;141.07;;
38226;SDS011;24026;49.446;8.576;2023-09-18T08:27:45;156.80;;;143.18;;
38226;SDS011;24026;49.446;8.576;2023-09-18T08:30:07;155.25;;;141.35;;
38226;SDS011;24026;49.446;8.576;2023-09-18T08:32:29;154.02;;;140.18;;
38226;SDS011;24026;49.446;8.576;2023-09-18T08:34:53;154.93;;;140.85;;
38226;SDS011;24026;49.446;8.576;2023-09-18T08:37:14;158.88;;;143.73;;
38226;SDS011;24026;49.446;8.576;2023-09-18T08:39:34;158.60;;;144.18;;
38226;SDS011;24026;49.446;8.576;2023-09-18T08:41:58;167.20;;;150.93;;
38226;SDS011;24026;49.446;8.576;2023-09-18T08:44:24;182.20;;;163.55;;
38226;SDS011;24026;49.446;8.576;2023-09-18T08:46:47;171.50;;;154.38;;
38226;SDS011;24026;49.446;8.576;2023-09-18T08:49:07;168.10;;;152.38;;
38226;SDS011;24026;49.446;8.576;2023-09-18T08:51:28;171.00;;;155.25;;
38226;SDS011;24026;49.446;8.576;2023-09-18T08:53:49;172.23;;;155.73;;
38226;SDS011;24026;49.446;8.576;2023-09-18T08:56:11;176.27;;;159.88;;
38226;SDS011;24026;49.446;8.576;2023-09-18T08:58:33;180.07;;;162.35;;
38226;SDS011;24026;49.446;8.576;2023-09-18T09:00:57;181.23;;;164.15;;
38226;SDS011;24026;49.446;8.576;2023-09-18T09:03:18;181.50;;;163.50;;
38226;SDS011;24026;49.446;8.576;2023-09-18T09:05:39;179.43;;;162.35;;
38226;SDS011;24026;49.446;8.576;2023-09-18T09:07:59;183.38;;;166.15;;
38226;SDS011;24026;49.446;8.576;2023-09-18T09:10:21;179.25;;;162.65;;
38226;SDS011;24026;49.446;8.576;2023-09-18T09:12:49;176.93;;;160.57;;
38226;SDS011;24026;49.446;8.576;2023-09-18T09:15:28;176.85;;;160.27;;
38226;SDS011;24026;49.446;8.576;2023-09-18T09:18:01;172.18;;;156.43;;
38226;SDS011;24026;49.446;8.576;2023-09-18T09:20:24;175.95;;;159.25;;
38226;SDS011;24026;49.446;8.576;2023-09-18T09:22:44;179.63;;;162.63;;
38226;SDS011;24026;49.446;8.576;2023-09-18T09:25:25;190.00;;;171.73;;
38226;SDS011;24026;49.446;8.576;2023-09-18T09:27:47;198.60;;;179.40;;
38226;SDS011;24026;49.446;8.576;2023-09-18T09:30:07;187.82;;;170.27;;
38226;SDS011;24026;49.446;8.576;2023-09-18T09:32:31;192.50;;;173.82;;
38226;SDS011;24026;49.446;8.576;2023-09-18T09:34:53;202.05;;;182.65;;
38226;SDS011;24026;49.446;8.576;2023-09-18T09:37:20;195.65;;;177.55;;
38226;SDS011;24026;49.446;8.576;2023-09-18T09:39:50;192.30;;;174.73;;
38226;SDS011;24026;49.446;8.576;2023-09-18T09:42:11;194.65;;;175.85;;
38226;SDS011;24026;49.446;8.576;2023-09-18T09:44:32;196.07;;;177.82;;
38226;SDS011;24026;49.446;8.576;2023-09-18T09:46:53;194.30;;;175.43;;
38226;SDS011;24026;49.446;8.576;2023-09-18T09:49:14;194.45;;;176.38;;
38226;SDS011;24026;49.446;8.576;2023-09-18T09:51:35;191.55;;;173.45;;
38226;SDS011;24026;49.446;8.576;2023-09-18T09:53:56;185.18;;;166.45;;
38226;SDS011;24026;49.446;8.576;2023-09-18T09:56:19;187.88;;;169.57;;
38226;SDS011;24026;49.446;8.576;2023-09-18T09:58:42;183.98;;;165.77;;
38226;SDS011;24026;49.446;8.576;2023-09-18T10:01:04;182.85;;;164.07;;
38226;SDS011;24026;49.446;8.576;2023-09-18T10:03:30;182.32;;;164.07;;
38226;SDS011;24026;49.446;8.576;2023-09-18T10:05:53;178.93;;;161.85;;
38226;SDS011;24026;49.446;8.576;2023-09-18T10:08:17;177.52;;;160.18;;
38226;SDS011;24026;49.446;8.576;2023-09-18T10:10:40;174.43;;;158.00;;
38226;SDS011;24026;49.446;8.576;2023-09-18T10:13:23;174.88;;;157.63;;
38226;SDS011;24026;49.446;8.576;2023-09-18T10:15:49;173.35;;;156.95;;
38226;SDS011;24026;49.446;8.576;2023-09-18T10:18:22;175.40;;;158.82;;
38226;SDS011;24026;49.446;8.576;2023-09-18T10:20:48;173.65;;;157.38;;
38226;SDS011;24026;49.446;8.576;2023-09-18T10:23:13;171.55;;;155.68;;
38226;SDS011;24026;49.446;8.576;2023-09-18T10:25:44;172.20;;;155.57;;
38226;SDS011;24026;49.446;8.576;2023-09-18T10:28:04;181.82;;;165.07;;
38226;SDS011;24026;49.446;8.576;2023-09-18T10:30:32;183.23;;;165.95;;
38226;SDS011;24026;49.446;8.576;2023-09-18T10:32:54;185.95;;;168.90;;
38226;SDS011;24026;49.446;8.576;2023-09-18T10:35:16;186.18;;;168.82;;
38226;SDS011;24026;49.446;8.576;2023-09-18T10:37:43;179.30;;;162.90;;
38226;SDS011;24026;49.446;8.576;2023-09-18T10:40:08;167.43;;;152.23;;
38226;SDS011;24026;49.446;8.576;2023-09-18T10:42:29;177.88;;;162.07;;
38226;SDS011;24026;49.446;8.576;2023-09-18T10:44:53;171.55;;;156.27;;
38226;SDS011;24026;49.446;8.576;2023-09-18T10:47:15;165.68;;;151.13;;
38226;SDS011;24026;49.446;8.576;2023-09-18T10:52:01;169.73;;;154.32;;
38226;SDS011;24026;49.446;8.576;2023-09-18T10:54:24;163.10;;;148.63;;
38226;SDS011;24026;49.446;8.576;2023-09-18T10:56:48;162.60;;;148.32;;
38226;SDS011;24026;49.446;8.576;2023-09-18T10:59:09;162.77;;;148.13;;
38226;SDS011;24026;49.446;8.576;2023-09-18T11:01:29;163.55;;;149.48;;
38226;SDS011;24026;49.446;8.576;2023-09-18T11:03:50;162.02;;;147.45;;
38226;SDS011;24026;49.446;8.576;2023-09-18T11:06:12;161.25;;;147.13;;
38226;SDS011;24026;49.446;8.576;2023-09-18T11:08:42;160.50;;;146.32;;
38226;SDS011;24026;49.446;8.576;2023-09-18T11:11:06;161.52;;;147.48;;
38226;SDS011;24026;49.446;8.576;2023-09-18T11:13:34;161.85;;;147.95;;
38226;SDS011;24026;49.446;8.576;2023-09-18T11:16:00;161.00;;;146.75;;
38226;SDS011;24026;49.446;8.576;2023-09-18T11:18:22;158.48;;;144.65;;
38226;SDS011;24026;49.446;8.576;2023-09-18T11:20:44;160.50;;;146.00;;
38226;SDS011;24026;49.446;8.576;2023-09-18T11:23:34;161.52;;;147.55;;
38226;SDS011;24026;49.446;8.576;2023-09-18T11:25:56;156.02;;;142.20;;
38226;SDS011;24026;49.446;8.576;2023-09-18T11:28:23;159.93;;;145.88;;
38226;SDS011;24026;49.446;8.576;2023-09-18T11:30:49;160.20;;;146.07;;
38226;SDS011;24026;49.446;8.576;2023-09-18T11:33:11;171.15;;;156.15;;
38226;SDS011;24026;49.446;8.576;2023-09-18T11:35:32;158.15;;;144.32;;
38226;SDS011;24026;49.446;8.576;2023-09-18T11:38:03;167.35;;;152.65;;
38226;SDS011;24026;49.446;8.576;2023-09-18T11:40:32;165.60;;;151.15;;
38226;SDS011;24026;49.446;8.576;2023-09-18T11:45:38;153.23;;;139.38;;
38226;SDS011;24026;49.446;8.576;2023-09-18T11:47:58;154.10;;;140.38;;
38226;SDS011;24026;49.446;8.576;2023-09-18T11:50:20;154.40;;;141.07;;
38226;SDS011;24026;49.446;8.576;2023-09-18T11:52:42;157.05;;;143.20;;
38226;SDS011;24026;49.446;8.576;2023-09-18T11:55:03;156.70;;;142.70;;
38226;SDS011;24026;49.446;8.576;2023-09-18T11:57:24;171.25;;;155.10;;
38226;SDS011;24026;49.446;8.576;2023-09-18T11:59:45;165.13;;;149.63;;
38226;SDS011;24026;49.446;8.576;2023-09-18T12:02:06;168.77;;;151.68;;
38226;SDS011;24026;49.446;8.576;2023-09-18T12:04:28;161.25;;;146.73;;
38226;SDS011;24026;49.446;8.576;2023-09-18T12:06:49;205.65;;;187.75;;
38226;SDS011;24026;49.446;8.576;2023-09-18T12:09:10;194.43;;;177.02;;
38226;SDS011;24026;49.446;8.576;2023-09-18T12:11:33;258.50;;;234.55;;
38226;SDS011;24026;49.446;8.576;2023-09-18T12:13:59;222.68;;;202.45;;
38226;SDS011;24026;49.446;8.576;2023-09-18T12:16:19;182.27;;;166.18;;
38226;SDS011;24026;49.446;8.576;2023-09-18T12:18:44;184.48;;;167.63;;
38226;SDS011;24026;49.446;8.576;2023-09-18T12:21:09;176.40;;;159.82;;
38226;SDS011;24026;49.446;8.576;2023-09-18T12:23:36;171.02;;;155.45;;
38226;SDS011;24026;49.446;8.576;2023-09-18T12:25:59;173.75;;;157.90;;
38226;SDS011;24026;49.446;8.576;2023-09-18T12:28:21;164.73;;;150.07;;
38226;SDS011;24026;49.446;8.576;2023-09-18T12:30:41;168.20;;;152.75;;
38226;SDS011;24026;49.446;8.576;2023-09-18T12:33:02;171.38;;;156.23;;
38226;SDS011;24026;49.446;8.576;2023-09-18T12:35:26;169.85;;;154.80;;
38226;SDS011;24026;49.446;8.576;2023-09-18T12:37:50;168.63;;;153.65;;
38226;SDS011;24026;49.446;8.576;2023-09-18T12:40:23;168.73;;;153.63;;
38226;SDS011;24026;49.446;8.576;2023-09-18T12:42:45;172.10;;;156.43;;
38226;SDS011;24026;49.446;8.576;2023-09-18T12:45:07;170.85;;;155.20;;
38226;SDS011;24026;49.446;8.576;2023-09-18T12:47:28;176.23;;;160.32;;
38226;SDS011;24026;49.446;8.576;2023-09-18T12:49:49;176.68;;;160.88;;
38226;SDS011;24026;49.446;8.576;2023-09-18T12:52:09;207.55;;;187.73;;
38226;SDS011;24026;49.446;8.576;2023-09-18T12:57:01;187.13;;;169.35;;
38226;SDS011;24026;49.446;8.576;2023-09-18T12:59:24;181.70;;;165.05;;
38226;SDS011;24026;49.446;8.576;2023-09-18T13:01:51;194.75;;;175.20;;
38226;SDS011;24026;49.446;8.576;2023-09-18T13:04:11;191.07;;;173.15;;
38226;SDS011;24026;49.446;8.576;2023-09-18T13:06:32;184.95;;;167.23;;
38226;SDS011;24026;49.446;8.576;2023-09-18T13:08:52;187.65;;;169.95;;
38226;SDS011;24026;49.446;8.576;2023-09-18T13:11:13;190.02;;;171.18;;
38226;SDS011;24026;49.446;8.576;2023-09-18T13:13:36;190.02;;;171.95;;
38226;SDS011;24026;49.446;8.576;2023-09-18T13:15:57;190.95;;;171.73;;
38226;SDS011;24026;49.446;8.576;2023-09-18T13:18:19;191.68;;;172.60;;
38226;SDS011;24026;49.446;8.576;2023-09-18T13:20:40;189.40;;;170.93;;
38226;SDS011;24026;49.446;8.576;2023-09-18T13:23:01;508.73;;;222.73;;
38226;SDS011;24026;49.446;8.576;2023-09-18T13:25:24;352.92;;;208.20;;
38226;SDS011;24026;49.446;8.576;2023-09-18T13:27:46;277.92;;;189.75;;
38226;SDS011;24026;49.446;8.576;2023-09-18T13:30:08;231.07;;;180.93;;
38226;SDS011;24026;49.446;8.576;2023-09-18T13:32:29;218.30;;;176.98;;
38226;SDS011;24026;49.446;8.576;2023-09-18T13:34:49;289.90;;;192.52;;